EDT,Max TemperatureF,Mean TemperatureF,Min TemperatureF,Max Dew PointF,MeanDew PointF,Min DewpointF,Max Humidity, Mean Humidity, Min Humidity, Max Sea Level PressureIn, Mean Sea Level PressureIn, Min Sea Level PressureIn, Max VisibilityMiles, Mean VisibilityMiles, Min VisibilityMiles, Max Wind SpeedMPH, Mean Wind SpeedMPH, Max Gust SpeedMPH,PrecipitationIn, CloudCover, Events, WindDirDegrees
2013-8-1,80,72,63,65,62,57,93,69,45,30.06,29.98,29.90,10,10,10,20,6,24,0.03,5,Rain,178
2013-8-2,84,75,66,67,64,57,93,68,43,29.89,29.83,29.81,10,8,2,18,6,25,0.20,6,Rain,292
2013-8-3,78,72,65,65,62,60,93,76,58,29.90,29.85,29.81,10,10,10,15,9,21,0.01,5,Rain,243
2013-8-4,81,69,57,61,56,51,87,63,39,29.90,29.84,29.79,10,10,10,17,7,24,0.02,2,,290
2013-8-5,78,68,57,53,48,37,86,56,25,30.05,29.98,29.91,10,10,10,18,7,23,0.00,1,,294
2013-8-6,80,67,54,58,50,45,89,60,30,30.16,30.12,30.06,10,10,10,15,5,20,0.00,2,,193
2013-8-7,78,67,56,63,55,48,93,65,36,30.20,30.17,30.14,10,10,10,17,7,22,0.00,4,Fog,171
2013-8-8,81,74,67,70,67,60,87,77,67,30.14,30.08,30.05,10,10,10,18,10,24,T,7,Rain,188
2013-8-9,76,74,72,73,71,69,100,91,82,30.06,29.93,29.80,10,6,0,24,11,33,1.74,8,Fog-Rain,188
2013-8-10,84,74,64,72,61,45,93,67,40,30.03,29.91,29.81,10,9,4,17,9,22,0.00,4,,274
2013-8-11,80,69,57,59,52,46,80,58,36,30.10,30.06,30.02,10,10,10,14,6,17,0.00,1,,276
2013-8-12,81,73,64,67,62,56,93,70,47,30.05,30.00,29.94,10,10,10,14,5,16,0.00,5,,196
2013-8-13,73,69,64,70,65,61,97,81,64,29.94,29.82,29.71,10,8,4,10,4,14,0.04,6,Rain,166
2013-8-14,74,67,60,63,53,48,93,69,44,29.99,29.79,29.70,10,10,9,24,10,31,0.00,3,,291
2013-8-15,77,67,56,54,50,44,86,61,35,30.10,30.06,30.01,10,10,10,15,7,20,0.00,3,,270
2013-8-16,79,67,55,58,54,48,84,60,36,30.21,30.17,30.14,10,10,10,15,6,20,0.00,5,,220
2013-8-17,82,71,59,59,55,53,84,63,42,30.29,30.25,30.22,10,10,10,10,3,14,0.00,5,,175
2013-8-18,79,70,60,62,57,53,93,68,43,30.29,30.22,30.12,10,10,10,10,4,15,T,5,Rain,198
2013-8-19,82,71,59,62,59,56,90,68,45,30.10,30.04,29.99,10,10,10,15,9,20,0.00,6,,262
2013-8-20,86,75,64,64,60,50,93,62,31,30.11,30.06,30.00,10,10,10,12,5,16,0.00,1,,273
2013-8-21,89,78,66,63,61,58,87,62,37,30.16,30.11,30.06,10,10,10,13,6,18,0.00,1,Fog,262
2013-8-22,84,76,67,71,69,64,100,81,61,30.06,29.96,29.86,10,8,1,23,7,28,0.49,6,Rain-Thunderstorm,225
2013-8-23,80,73,65,70,62,55,97,73,48,30.11,29.93,29.84,10,10,6,20,7,23,0.00,5,,353
2013-8-24,77,67,57,52,47,40,80,54,27,30.35,30.27,30.13,10,10,10,17,8,26,0.00,1,,12
2013-8-25,82,69,55,58,53,48,93,63,33,30.38,30.30,30.23,10,10,10,16,5,22,0.00,2,,203
2013-8-26,81,74,66,68,62,58,97,78,58,30.22,30.04,29.92,10,9,2,17,10,22,0.32,6,Rain,237
2013-8-27,81,74,67,70,68,63,97,78,58,29.90,29.86,29.83,10,7,2,14,4,18,0.88,7,Rain,55
2013-8-28,84,74,63,68,66,63,100,76,51,29.94,29.90,29.86,10,8,2,16,4,21,0.00,3,Fog,135
2013-8-29,70,66,61,66,62,57,100,91,81,30.06,30.02,29.95,10,9,0,21,11,24,T,8,Fog-Rain,30
2013-8-30,80,70,60,67,61,55,90,76,62,30.03,29.96,29.87,10,10,6,14,7,17,0.00,7,,253
2013-8-31,80,75,70,70,69,66,97,86,74,29.86,29.85,29.83,10,8,6,14,8,18,0.00,7,,212